sensor_id;sensor_type;location;lat;lon;timestamp;temperature;humidity
12901;DHT22;6518;50.930;5.344;2023-09-30T00:02:26;15.30;99.90
12901;DHT22;6518;50.930;5.344;2023-09-30T00:04:53;15.20;99.90
12901;DHT22;6518;50.930;5.344;2023-09-30T00:07:20;15.20;99.90
12901;DHT22;6518;50.930;5.344;2023-09-30T00:09:48;15.20;99.90
12901;DHT22;6518;50.930;5.344;2023-09-30T00:12:17;15.10;99.90
12901;DHT22;6518;50.930;5.344;2023-09-30T00:14:44;15.10;99.90
12901;DHT22;6518;50.930;5.344;2023-09-30T00:17:11;15.10;99.90
12901;DHT22;6518;50.930;5.344;2023-09-30T00:19:38;15.10;99.90
12901;DHT22;6518;50.930;5.344;2023-09-30T00:22:05;15.00;99.90
12901;DHT22;6518;50.930;5.344;2023-09-30T00:24:32;15.00;99.90
12901;DHT22;6518;50.930;5.344;2023-09-30T00:27:01;15.10;99.90
12901;DHT22;6518;50.930;5.344;2023-09-30T00:29:28;15.00;99.90
12901;DHT22;6518;50.930;5.344;2023-09-30T00:31:54;15.10;99.90
12901;DHT22;6518;50.930;5.344;2023-09-30T00:34:21;15.10;99.90
12901;DHT22;6518;50.930;5.344;2023-09-30T00:36:48;15.00;99.90
12901;DHT22;6518;50.930;5.344;2023-09-30T00:39:15;15.00;99.90
12901;DHT22;6518;50.930;5.344;2023-09-30T00:41:42;15.00;99.90
12901;DHT22;6518;50.930;5.344;2023-09-30T00:44:10;15.00;99.90
12901;DHT22;6518;50.930;5.344;2023-09-30T00:46:39;15.00;99.90
12901;DHT22;6518;50.930;5.344;2023-09-30T00:49:07;14.90;99.90
12901;DHT22;6518;50.930;5.344;2023-09-30T00:51:33;14.90;99.90
12901;DHT22;6518;50.930;5.344;2023-09-30T00:54:01;14.90;99.90
12901;DHT22;6518;50.930;5.344;2023-09-30T00:56:30;14.90;99.90
12901;DHT22;6518;50.930;5.344;2023-09-30T00:58:57;14.90;99.90
12901;DHT22;6518;50.930;5.344;2023-09-30T01:01:26;14.90;99.90
12901;DHT22;6518;50.930;5.344;2023-09-30T01:03:53;14.90;99.90
12901;DHT22;6518;50.930;5.344;2023-09-30T01:06:20;14.90;99.90
12901;DHT22;6518;50.930;5.344;2023-09-30T01:08:47;14.80;99.90
12901;DHT22;6518;50.930;5.344;2023-09-30T01:11:14;14.80;99.90
12901;DHT22;6518;50.930;5.344;2023-09-30T01:13:42;14.80;99.90
12901;DHT22;6518;50.930;5.344;2023-09-30T01:16:10;14.80;99.90
12901;DHT22;6518;50.930;5.344;2023-09-30T01:18:39;14.80;99.90
12901;DHT22;6518;50.930;5.344;2023-09-30T01:21:09;14.80;99.90
12901;DHT22;6518;50.930;5.344;2023-09-30T01:23:38;14.80;99.90
12901;DHT22;6518;50.930;5.344;2023-09-30T01:26:07;14.80;99.90
12901;DHT22;6518;50.930;5.344;2023-09-30T01:28:35;14.70;99.90
12901;DHT22;6518;50.930;5.344;2023-09-30T01:31:02;14.70;99.90
12901;DHT22;6518;50.930;5.344;2023-09-30T01:33:29;14.70;99.90
12901;DHT22;6518;50.930;5.344;2023-09-30T01:35:57;14.70;99.90
12901;DHT22;6518;50.930;5.344;2023-09-30T01:38:25;14.30;99.90
12901;DHT22;6518;50.930;5.344;2023-09-30T01:40:53;14.60;99.90
12901;DHT22;6518;50.930;5.344;2023-09-30T01:43:20;14.60;99.90
12901;DHT22;6518;50.930;5.344;2023-09-30T01:45:47;14.70;99.90
12901;DHT22;6518;50.930;5.344;2023-09-30T01:48:14;14.70;99.90
12901;DHT22;6518;50.930;5.344;2023-09-30T01:50:41;14.70;99.90
12901;DHT22;6518;50.930;5.344;2023-09-30T01:53:08;14.60;99.90
12901;DHT22;6518;50.930;5.344;2023-09-30T01:55:35;14.60;99.90
12901;DHT22;6518;50.930;5.344;2023-09-30T01:58:04;14.60;99.90
12901;DHT22;6518;50.930;5.344;2023-09-30T02:00:31;14.60;99.90
12901;DHT22;6518;50.930;5.344;2023-09-30T02:02:58;14.60;99.90
12901;DHT22;6518;50.930;5.344;2023-09-30T02:05:26;14.60;99.90
12901;DHT22;6518;50.930;5.344;2023-09-30T02:07:52;14.60;99.90
12901;DHT22;6518;50.930;5.344;2023-09-30T02:10:20;14.60;99.90
12901;DHT22;6518;50.930;5.344;2023-09-30T02:12:47;14.60;99.90
12901;DHT22;6518;50.930;5.344;2023-09-30T02:15:16;14.60;99.90
12901;DHT22;6518;50.930;5.344;2023-09-30T02:17:43;14.50;99.90
12901;DHT22;6518;50.930;5.344;2023-09-30T02:20:12;14.60;99.90
12901;DHT22;6518;50.930;5.344;2023-09-30T02:22:42;14.60;99.90
12901;DHT22;6518;50.930;5.344;2023-09-30T02:25:10;14.50;99.90
12901;DHT22;6518;50.930;5.344;2023-09-30T02:27:39;14.50;99.90
12901;DHT22;6518;50.930;5.344;2023-09-30T02:30:08;14.50;99.90
12901;DHT22;6518;50.930;5.344;2023-09-30T02:32:40;14.50;99.90
12901;DHT22;6518;50.930;5.344;2023-09-30T02:35:08;14.50;99.90
12901;DHT22;6518;50.930;5.344;2023-09-30T02:37:36;14.50;99.90
12901;DHT22;6518;50.930;5.344;2023-09-30T02:40:04;14.50;99.90
12901;DHT22;6518;50.930;5.344;2023-09-30T02:42:35;14.40;99.90
12901;DHT22;6518;50.930;5.344;2023-09-30T02:45:03;14.40;99.90
12901;DHT22;6518;50.930;5.344;2023-09-30T02:47:30;14.40;99.90
12901;DHT22;6518;50.930;5.344;2023-09-30T02:49:59;14.40;99.90
12901;DHT22;6518;50.930;5.344;2023-09-30T02:52:26;14.30;99.90
12901;DHT22;6518;50.930;5.344;2023-09-30T02:54:54;14.30;99.90
12901;DHT22;6518;50.930;5.344;2023-09-30T02:57:23;14.30;99.90
12901;DHT22;6518;50.930;5.344;2023-09-30T02:59:50;14.30;99.90
12901;DHT22;6518;50.930;5.344;2023-09-30T03:02:20;14.30;99.90
12901;DHT22;6518;50.930;5.344;2023-09-30T03:04:48;14.20;99.90
12901;DHT22;6518;50.930;5.344;2023-09-30T03:07:18;14.10;99.90
12901;DHT22;6518;50.930;5.344;2023-09-30T03:09:46;14.10;99.90
12901;DHT22;6518;50.930;5.344;2023-09-30T03:12:13;14.10;99.90
12901;DHT22;6518;50.930;5.344;2023-09-30T03:14:40;14.10;99.90
12901;DHT22;6518;50.930;5.344;2023-09-30T03:17:08;14.10;99.90
12901;DHT22;6518;50.930;5.344;2023-09-30T03:19:37;14.00;99.90
12901;DHT22;6518;50.930;5.344;2023-09-30T03:22:04;14.00;99.90
12901;DHT22;6518;50.930;5.344;2023-09-30T03:24:38;14.00;99.90
12901;DHT22;6518;50.930;5.344;2023-09-30T03:27:05;14.10;99.90
12901;DHT22;6518;50.930;5.344;2023-09-30T03:29:35;14.00;99.90
12901;DHT22;6518;50.930;5.344;2023-09-30T03:32:02;14.00;99.90
12901;DHT22;6518;50.930;5.344;2023-09-30T03:34:29;14.00;99.90
12901;DHT22;6518;50.930;5.344;2023-09-30T03:36:56;14.00;99.90
12901;DHT22;6518;50.930;5.344;2023-09-30T03:39:24;14.00;99.90
12901;DHT22;6518;50.930;5.344;2023-09-30T03:41:55;13.90;99.90
12901;DHT22;6518;50.930;5.344;2023-09-30T03:44:23;13.90;99.90
12901;DHT22;6518;50.930;5.344;2023-09-30T03:46:50;13.90;99.90
12901;DHT22;6518;50.930;5.344;2023-09-30T03:49:18;13.90;99.90
12901;DHT22;6518;50.930;5.344;2023-09-30T03:51:46;13.90;99.90
12901;DHT22;6518;50.930;5.344;2023-09-30T03:54:16;13.90;99.90
12901;DHT22;6518;50.930;5.344;2023-09-30T03:56:43;13.90;99.90
12901;DHT22;6518;50.930;5.344;2023-09-30T03:59:12;13.80;99.90
12901;DHT22;6518;50.930;5.344;2023-09-30T04:01:39;13.80;99.90
12901;DHT22;6518;50.930;5.344;2023-09-30T04:04:06;13.80;99.90
12901;DHT22;6518;50.930;5.344;2023-09-30T04:06:35;13.80;99.90
12901;DHT22;6518;50.930;5.344;2023-09-30T04:09:03;13.80;99.90
12901;DHT22;6518;50.930;5.344;2023-09-30T04:11:35;13.80;99.90
12901;DHT22;6518;50.930;5.344;2023-09-30T04:14:03;13.80;99.90
12901;DHT22;6518;50.930;5.344;2023-09-30T04:16:31;13.80;99.90
12901;DHT22;6518;50.930;5.344;2023-09-30T04:18:58;13.80;99.90
12901;DHT22;6518;50.930;5.344;2023-09-30T04:21:25;13.80;99.90
12901;DHT22;6518;50.930;5.344;2023-09-30T04:23:53;13.70;99.90
12901;DHT22;6518;50.930;5.344;2023-09-30T04:26:21;13.70;99.90
12901;DHT22;6518;50.930;5.344;2023-09-30T04:28:48;13.70;99.90
12901;DHT22;6518;50.930;5.344;2023-09-30T04:31:15;13.70;99.90
12901;DHT22;6518;50.930;5.344;2023-09-30T04:33:45;13.70;99.90
12901;DHT22;6518;50.930;5.344;2023-09-30T04:36:12;13.70;99.90
12901;DHT22;6518;50.930;5.344;2023-09-30T04:38:39;13.70;99.90
12901;DHT22;6518;50.930;5.344;2023-09-30T04:41:06;13.70;99.90
12901;DHT22;6518;50.930;5.344;2023-09-30T04:43:34;13.70;99.90
12901;DHT22;6518;50.930;5.344;2023-09-30T04:46:02;13.70;99.90
12901;DHT22;6518;50.930;5.344;2023-09-30T04:48:29;13.70;99.90
12901;DHT22;6518;50.930;5.344;2023-09-30T04:50:59;13.70;99.90
12901;DHT22;6518;50.930;5.344;2023-09-30T04:53:25;13.70;99.90
12901;DHT22;6518;50.930;5.344;2023-09-30T04:55:52;13.70;99.90
12901;DHT22;6518;50.930;5.344;2023-09-30T04:58:21;13.70;99.90
12901;DHT22;6518;50.930;5.344;2023-09-30T05:00:49;13.70;99.90
12901;DHT22;6518;50.930;5.344;2023-09-30T05:03:16;13.70;99.90
12901;DHT22;6518;50.930;5.344;2023-09-30T05:05:44;13.70;99.90
12901;DHT22;6518;50.930;5.344;2023-09-30T05:08:13;13.60;99.90
12901;DHT22;6518;50.930;5.344;2023-09-30T05:10:39;13.60;99.90
12901;DHT22;6518;50.930;5.344;2023-09-30T05:13:06;13.60;99.90
12901;DHT22;6518;50.930;5.344;2023-09-30T05:15:33;13.60;99.90
12901;DHT22;6518;50.930;5.344;2023-09-30T05:18:01;13.50;99.90
12901;DHT22;6518;50.930;5.344;2023-09-30T05:20:28;13.50;99.90
12901;DHT22;6518;50.930;5.344;2023-09-30T05:22:55;13.50;99.90
12901;DHT22;6518;50.930;5.344;2023-09-30T05:25:23;13.50;99.90
12901;DHT22;6518;50.930;5.344;2023-09-30T05:27:52;13.40;99.90
12901;DHT22;6518;50.930;5.344;2023-09-30T05:30:19;13.40;99.90
12901;DHT22;6518;50.930;5.344;2023-09-30T05:32:46;13.40;99.90
12901;DHT22;6518;50.930;5.344;2023-09-30T05:35:14;13.40;99.90
12901;DHT22;6518;50.930;5.344;2023-09-30T05:37:42;13.40;99.90
12901;DHT22;6518;50.930;5.344;2023-09-30T05:40:11;13.40;99.90
12901;DHT22;6518;50.930;5.344;2023-09-30T05:42:47;13.30;99.90
12901;DHT22;6518;50.930;5.344;2023-09-30T05:45:14;13.40;99.90
12901;DHT22;6518;50.930;5.344;2023-09-30T05:47:41;13.40;99.90
12901;DHT22;6518;50.930;5.344;2023-09-30T05:50:10;13.40;99.90
12901;DHT22;6518;50.930;5.344;2023-09-30T05:52:40;13.40;99.90
12901;DHT22;6518;50.930;5.344;2023-09-30T05:55:08;13.30;99.90
12901;DHT22;6518;50.930;5.344;2023-09-30T05:57:35;13.40;99.90
12901;DHT22;6518;50.930;5.344;2023-09-30T06:00:04;13.30;99.90
12901;DHT22;6518;50.930;5.344;2023-09-30T06:02:37;13.30;99.90
12901;DHT22;6518;50.930;5.344;2023-09-30T06:05:04;13.40;99.90
12901;DHT22;6518;50.930;5.344;2023-09-30T06:07:32;13.40;99.90
12901;DHT22;6518;50.930;5.344;2023-09-30T06:10:00;13.40;99.90
12901;DHT22;6518;50.930;5.344;2023-09-30T06:12:28;13.50;99.90
12901;DHT22;6518;50.930;5.344;2023-09-30T06:14:55;13.50;99.90
12901;DHT22;6518;50.930;5.344;2023-09-30T06:17:25;13.50;99.90
12901;DHT22;6518;50.930;5.344;2023-09-30T06:19:52;13.60;99.90
12901;DHT22;6518;50.930;5.344;2023-09-30T06:22:20;13.70;99.90
12901;DHT22;6518;50.930;5.344;2023-09-30T06:24:49;13.70;99.90
12901;DHT22;6518;50.930;5.344;2023-09-30T06:27:16;13.70;99.90
12901;DHT22;6518;50.930;5.344;2023-09-30T06:29:42;13.80;99.90
12901;DHT22;6518;50.930;5.344;2023-09-30T06:32:09;13.80;99.90
12901;DHT22;6518;50.930;5.344;2023-09-30T06:34:37;13.90;99.90
12901;DHT22;6518;50.930;5.344;2023-09-30T06:37:04;13.90;99.90
12901;DHT22;6518;50.930;5.344;2023-09-30T06:39:31;13.90;99.90
12901;DHT22;6518;50.930;5.344;2023-09-30T06:41:58;14.00;99.90
12901;DHT22;6518;50.930;5.344;2023-09-30T06:44:25;14.00;99.90
12901;DHT22;6518;50.930;5.344;2023-09-30T06:46:53;14.00;99.90
12901;DHT22;6518;50.930;5.344;2023-09-30T06:49:20;14.10;99.90
12901;DHT22;6518;50.930;5.344;2023-09-30T06:51:48;14.10;99.90
12901;DHT22;6518;50.930;5.344;2023-09-30T06:54:15;14.20;99.90
12901;DHT22;6518;50.930;5.344;2023-09-30T06:56:42;14.20;99.90
12901;DHT22;6518;50.930;5.344;2023-09-30T06:59:09;14.30;99.90
12901;DHT22;6518;50.930;5.344;2023-09-30T07:01:36;14.30;99.90
12901;DHT22;6518;50.930;5.344;2023-09-30T07:04:03;14.30;99.90
12901;DHT22;6518;50.930;5.344;2023-09-30T07:06:32;14.30;99.90
12901;DHT22;6518;50.930;5.344;2023-09-30T07:09:00;14.40;99.90
12901;DHT22;6518;50.930;5.344;2023-09-30T07:11:28;14.40;99.90
12901;DHT22;6518;50.930;5.344;2023-09-30T07:13:56;14.50;99.90
12901;DHT22;6518;50.930;5.344;2023-09-30T07:16:22;14.50;99.90
12901;DHT22;6518;50.930;5.344;2023-09-30T07:18:49;14.50;99.90
12901;DHT22;6518;50.930;5.344;2023-09-30T07:21:17;14.60;99.90
12901;DHT22;6518;50.930;5.344;2023-09-30T07:23:43;14.60;99.90
12901;DHT22;6518;50.930;5.344;2023-09-30T07:26:12;14.60;99.90
12901;DHT22;6518;50.930;5.344;2023-09-30T07:28:40;14.60;99.90
12901;DHT22;6518;50.930;5.344;2023-09-30T07:31:07;14.60;99.90
12901;DHT22;6518;50.930;5.344;2023-09-30T07:33:34;14.60;99.90
12901;DHT22;6518;50.930;5.344;2023-09-30T07:36:00;14.60;99.90
12901;DHT22;6518;50.930;5.344;2023-09-30T07:38:27;14.60;99.90
12901;DHT22;6518;50.930;5.344;2023-09-30T07:40:54;14.60;99.90
12901;DHT22;6518;50.930;5.344;2023-09-30T07:43:22;14.60;99.90
12901;DHT22;6518;50.930;5.344;2023-09-30T07:45:49;14.70;99.90
12901;DHT22;6518;50.930;5.344;2023-09-30T07:48:17;14.70;99.90
12901;DHT22;6518;50.930;5.344;2023-09-30T07:50:44;14.70;99.90
12901;DHT22;6518;50.930;5.344;2023-09-30T07:53:12;14.80;99.90
12901;DHT22;6518;50.930;5.344;2023-09-30T07:55:39;14.80;99.90
12901;DHT22;6518;50.930;5.344;2023-09-30T07:58:06;14.80;99.90
12901;DHT22;6518;50.930;5.344;2023-09-30T08:00:35;14.80;99.90
12901;DHT22;6518;50.930;5.344;2023-09-30T08:03:02;14.80;99.90
12901;DHT22;6518;50.930;5.344;2023-09-30T08:05:29;14.90;99.90
12901;DHT22;6518;50.930;5.344;2023-09-30T08:07:57;14.90;99.90
12901;DHT22;6518;50.930;5.344;2023-09-30T08:10:24;15.00;99.90
12901;DHT22;6518;50.930;5.344;2023-09-30T08:12:50;15.00;99.90
12901;DHT22;6518;50.930;5.344;2023-09-30T08:15:18;15.00;99.90
12901;DHT22;6518;50.930;5.344;2023-09-30T08:17:46;15.00;99.90
12901;DHT22;6518;50.930;5.344;2023-09-30T08:20:13;15.10;99.90
12901;DHT22;6518;50.930;5.344;2023-09-30T08:22:40;15.10;99.90
12901;DHT22;6518;50.930;5.344;2023-09-30T08:25:08;15.20;99.90
12901;DHT22;6518;50.930;5.344;2023-09-30T08:27:36;15.20;99.90
12901;DHT22;6518;50.930;5.344;2023-09-30T08:30:04;15.20;99.90
12901;DHT22;6518;50.930;5.344;2023-09-30T08:32:33;15.20;99.90
12901;DHT22;6518;50.930;5.344;2023-09-30T08:35:01;15.30;99.90
12901;DHT22;6518;50.930;5.344;2023-09-30T08:37:28;15.30;99.90
12901;DHT22;6518;50.930;5.344;2023-09-30T08:39:55;15.40;99.90
12901;DHT22;6518;50.930;5.344;2023-09-30T08:42:22;15.50;99.90
12901;DHT22;6518;50.930;5.344;2023-09-30T08:44:51;15.50;99.90
12901;DHT22;6518;50.930;5.344;2023-09-30T08:47:20;15.50;99.90
12901;DHT22;6518;50.930;5.344;2023-09-30T08:49:48;15.60;99.90
12901;DHT22;6518;50.930;5.344;2023-09-30T08:52:22;15.70;99.90
12901;DHT22;6518;50.930;5.344;2023-09-30T08:54:49;15.70;99.90
12901;DHT22;6518;50.930;5.344;2023-09-30T08:57:19;15.80;99.90
12901;DHT22;6518;50.930;5.344;2023-09-30T08:59:46;15.90;99.90
12901;DHT22;6518;50.930;5.344;2023-09-30T09:02:15;15.90;99.90
12901;DHT22;6518;50.930;5.344;2023-09-30T09:04:42;16.00;99.90
12901;DHT22;6518;50.930;5.344;2023-09-30T09:07:10;16.00;99.90
12901;DHT22;6518;50.930;5.344;2023-09-30T09:09:38;16.10;99.90
12901;DHT22;6518;50.930;5.344;2023-09-30T09:12:06;16.10;99.90
12901;DHT22;6518;50.930;5.344;2023-09-30T09:14:37;16.20;99.90
12901;DHT22;6518;50.930;5.344;2023-09-30T09:17:07;16.20;99.90
12901;DHT22;6518;50.930;5.344;2023-09-30T09:19:34;16.30;99.90
12901;DHT22;6518;50.930;5.344;2023-09-30T09:22:01;16.30;99.90
12901;DHT22;6518;50.930;5.344;2023-09-30T09:24:31;16.40;99.90
12901;DHT22;6518;50.930;5.344;2023-09-30T09:27:07;16.40;99.90
12901;DHT22;6518;50.930;5.344;2023-09-30T09:29:36;16.50;99.90
12901;DHT22;6518;50.930;5.344;2023-09-30T09:32:10;16.60;99.90
12901;DHT22;6518;50.930;5.344;2023-09-30T09:34:37;16.60;99.90
12901;DHT22;6518;50.930;5.344;2023-09-30T09:37:15;16.70;99.90
12901;DHT22;6518;50.930;5.344;2023-09-30T09:39:52;16.80;99.90
12901;DHT22;6518;50.930;5.344;2023-09-30T09:42:27;16.80;99.90
12901;DHT22;6518;50.930;5.344;2023-09-30T09:44:55;17.00;99.90
12901;DHT22;6518;50.930;5.344;2023-09-30T09:47:23;17.00;99.90
12901;DHT22;6518;50.930;5.344;2023-09-30T09:49:51;17.10;99.90
12901;DHT22;6518;50.930;5.344;2023-09-30T09:52:20;17.20;99.90
12901;DHT22;6518;50.930;5.344;2023-09-30T09:54:47;17.30;99.90
12901;DHT22;6518;50.930;5.344;2023-09-30T09:57:16;17.30;99.90
12901;DHT22;6518;50.930;5.344;2023-09-30T09:59:46;17.50;99.90
12901;DHT22;6518;50.930;5.344;2023-09-30T10:02:15;17.60;99.90
12901;DHT22;6518;50.930;5.344;2023-09-30T10:04:44;17.70;99.90
12901;DHT22;6518;50.930;5.344;2023-09-30T10:07:12;17.70;99.90
12901;DHT22;6518;50.930;5.344;2023-09-30T10:09:45;17.70;99.90
12901;DHT22;6518;50.930;5.344;2023-09-30T10:12:14;17.80;99.90
12901;DHT22;6518;50.930;5.344;2023-09-30T10:14:41;17.80;99.90
12901;DHT22;6518;50.930;5.344;2023-09-30T10:17:11;17.90;99.90
12901;DHT22;6518;50.930;5.344;2023-09-30T10:20:05;17.90;99.90
12901;DHT22;6518;50.930;5.344;2023-09-30T10:22:33;18.00;99.90
12901;DHT22;6518;50.930;5.344;2023-09-30T10:25:01;18.00;99.90
12901;DHT22;6518;50.930;5.344;2023-09-30T10:27:32;18.00;99.90
12901;DHT22;6518;50.930;5.344;2023-09-30T10:29:59;18.00;99.90
12901;DHT22;6518;50.930;5.344;2023-09-30T10:35:47;17.80;99.90
12901;DHT22;6518;50.930;5.344;2023-09-30T10:38:36;17.80;99.90
12901;DHT22;6518;50.930;5.344;2023-09-30T10:41:03;17.90;99.90
12901;DHT22;6518;50.930;5.344;2023-09-30T10:43:31;18.00;99.90
12901;DHT22;6518;50.930;5.344;2023-09-30T10:45:58;18.10;99.90
12901;DHT22;6518;50.930;5.344;2023-09-30T10:48:38;18.30;99.90
12901;DHT22;6518;50.930;5.344;2023-09-30T10:51:18;18.40;99.90
12901;DHT22;6518;50.930;5.344;2023-09-30T10:53:48;18.50;99.90
12901;DHT22;6518;50.930;5.344;2023-09-30T10:56:17;18.50;99.90
12901;DHT22;6518;50.930;5.344;2023-09-30T10:58:45;18.50;99.90
12901;DHT22;6518;50.930;5.344;2023-09-30T11:01:13;18.50;99.90
12901;DHT22;6518;50.930;5.344;2023-09-30T11:03:41;18.50;99.90
12901;DHT22;6518;50.930;5.344;2023-09-30T11:06:11;18.60;99.90
12901;DHT22;6518;50.930;5.344;2023-09-30T11:08:47;18.60;99.90
12901;DHT22;6518;50.930;5.344;2023-09-30T11:11:17;18.70;99.90
12901;DHT22;6518;50.930;5.344;2023-09-30T11:13:44;18.80;99.90
12901;DHT22;6518;50.930;5.344;2023-09-30T11:16:11;18.80;99.90
12901;DHT22;6518;50.930;5.344;2023-09-30T11:18:38;18.90;99.90
12901;DHT22;6518;50.930;5.344;2023-09-30T11:21:06;18.90;99.90
12901;DHT22;6518;50.930;5.344;2023-09-30T11:23:35;18.90;99.90
12901;DHT22;6518;50.930;5.344;2023-09-30T11:26:04;18.90;99.90
12901;DHT22;6518;50.930;5.344;2023-09-30T11:28:39;19.00;99.90
12901;DHT22;6518;50.930;5.344;2023-09-30T11:31:08;19.00;99.90
12901;DHT22;6518;50.930;5.344;2023-09-30T11:33:53;19.10;99.90
12901;DHT22;6518;50.930;5.344;2023-09-30T11:36:22;19.10;99.90
12901;DHT22;6518;50.930;5.344;2023-09-30T11:38:50;19.30;99.90
12901;DHT22;6518;50.930;5.344;2023-09-30T11:41:19;19.40;99.90
12901;DHT22;6518;50.930;5.344;2023-09-30T11:44:01;19.50;99.90
12901;DHT22;6518;50.930;5.344;2023-09-30T11:46:31;19.60;99.90
12901;DHT22;6518;50.930;5.344;2023-09-30T11:49:00;19.60;99.90
12901;DHT22;6518;50.930;5.344;2023-09-30T11:51:28;19.50;99.20
12901;DHT22;6518;50.930;5.344;2023-09-30T11:53:57;19.40;98.50
12901;DHT22;6518;50.930;5.344;2023-09-30T11:56:25;19.50;99.00
12901;DHT22;6518;50.930;5.344;2023-09-30T11:58:55;19.60;98.90
12901;DHT22;6518;50.930;5.344;2023-09-30T12:01:24;19.60;98.90
12901;DHT22;6518;50.930;5.344;2023-09-30T12:03:52;19.60;97.10
12901;DHT22;6518;50.930;5.344;2023-09-30T12:06:21;19.70;97.10
12901;DHT22;6518;50.930;5.344;2023-09-30T12:08:48;19.70;96.80
12901;DHT22;6518;50.930;5.344;2023-09-30T12:11:18;19.80;96.70
12901;DHT22;6518;50.930;5.344;2023-09-30T12:13:47;19.80;96.90
12901;DHT22;6518;50.930;5.344;2023-09-30T12:16:15;19.90;94.90
12901;DHT22;6518;50.930;5.344;2023-09-30T12:18:42;19.90;92.90
12901;DHT22;6518;50.930;5.344;2023-09-30T12:21:10;19.90;93.30
12901;DHT22;6518;50.930;5.344;2023-09-30T12:23:37;19.80;92.70
12901;DHT22;6518;50.930;5.344;2023-09-30T12:26:04;19.80;92.40
12901;DHT22;6518;50.930;5.344;2023-09-30T12:28:32;19.80;90.20
12901;DHT22;6518;50.930;5.344;2023-09-30T12:31:00;19.80;89.70
12901;DHT22;6518;50.930;5.344;2023-09-30T12:33:28;19.70;88.30
12901;DHT22;6518;50.930;5.344;2023-09-30T12:35:56;19.60;88.20
12901;DHT22;6518;50.930;5.344;2023-09-30T12:38:23;19.70;89.50
12901;DHT22;6518;50.930;5.344;2023-09-30T12:40:52;19.70;89.00
12901;DHT22;6518;50.930;5.344;2023-09-30T12:43:19;19.80;89.40
12901;DHT22;6518;50.930;5.344;2023-09-30T12:45:46;19.90;89.00
12901;DHT22;6518;50.930;5.344;2023-09-30T12:48:14;19.90;87.00
12901;DHT22;6518;50.930;5.344;2023-09-30T12:50:42;19.90;85.40
12901;DHT22;6518;50.930;5.344;2023-09-30T12:53:09;19.90;87.40
12901;DHT22;6518;50.930;5.344;2023-09-30T12:55:36;20.00;84.30
12901;DHT22;6518;50.930;5.344;2023-09-30T12:58:03;20.00;85.30
12901;DHT22;6518;50.930;5.344;2023-09-30T13:00:31;20.10;84.70
12901;DHT22;6518;50.930;5.344;2023-09-30T13:02:58;20.20;84.60
12901;DHT22;6518;50.930;5.344;2023-09-30T13:05:27;20.30;83.60
12901;DHT22;6518;50.930;5.344;2023-09-30T13:07:55;20.50;83.30
12901;DHT22;6518;50.930;5.344;2023-09-30T13:10:22;20.60;83.20
12901;DHT22;6518;50.930;5.344;2023-09-30T13:12:49;20.70;82.20
12901;DHT22;6518;50.930;5.344;2023-09-30T13:15:16;20.70;82.00
12901;DHT22;6518;50.930;5.344;2023-09-30T13:17:43;20.60;81.10
12901;DHT22;6518;50.930;5.344;2023-09-30T13:20:11;20.80;76.50
12901;DHT22;6518;50.930;5.344;2023-09-30T13:22:40;20.80;78.40
12901;DHT22;6518;50.930;5.344;2023-09-30T13:25:08;20.90;79.00
12901;DHT22;6518;50.930;5.344;2023-09-30T13:27:37;21.00;78.70
12901;DHT22;6518;50.930;5.344;2023-09-30T13:30:06;21.00;78.60
12901;DHT22;6518;50.930;5.344;2023-09-30T13:32:34;21.00;78.70
12901;DHT22;6518;50.930;5.344;2023-09-30T13:35:03;21.00;78.80
12901;DHT22;6518;50.930;5.344;2023-09-30T13:37:31;21.10;78.00
12901;DHT22;6518;50.930;5.344;2023-09-30T13:40:00;21.00;77.00
12901;DHT22;6518;50.930;5.344;2023-09-30T13:42:28;21.00;77.10
12901;DHT22;6518;50.930;5.344;2023-09-30T13:44:56;20.90;76.80
12901;DHT22;6518;50.930;5.344;2023-09-30T13:47:24;20.90;76.70
12901;DHT22;6518;50.930;5.344;2023-09-30T13:49:52;20.90;76.30
12901;DHT22;6518;50.930;5.344;2023-09-30T13:52:19;21.00;76.20
12901;DHT22;6518;50.930;5.344;2023-09-30T13:54:46;20.90;76.20
12901;DHT22;6518;50.930;5.344;2023-09-30T13:57:14;21.00;75.70
12901;DHT22;6518;50.930;5.344;2023-09-30T13:59:41;20.90;75.70
12901;DHT22;6518;50.930;5.344;2023-09-30T14:02:09;21.00;75.70
12901;DHT22;6518;50.930;5.344;2023-09-30T14:04:35;20.90;75.50
12901;DHT22;6518;50.930;5.344;2023-09-30T14:07:03;20.90;74.80
12901;DHT22;6518;50.930;5.344;2023-09-30T14:09:31;20.90;73.90
12901;DHT22;6518;50.930;5.344;2023-09-30T14:11:58;20.90;74.50
12901;DHT22;6518;50.930;5.344;2023-09-30T14:14:26;20.90;74.70
12901;DHT22;6518;50.930;5.344;2023-09-30T14:16:53;20.90;74.10
12901;DHT22;6518;50.930;5.344;2023-09-30T14:19:20;20.90;72.80
12901;DHT22;6518;50.930;5.344;2023-09-30T14:21:47;20.80;72.50
12901;DHT22;6518;50.930;5.344;2023-09-30T14:24:14;20.80;73.40
12901;DHT22;6518;50.930;5.344;2023-09-30T14:26:41;20.80;73.40
12901;DHT22;6518;50.930;5.344;2023-09-30T14:29:09;20.80;73.30
12901;DHT22;6518;50.930;5.344;2023-09-30T14:31:39;20.80;73.30
12901;DHT22;6518;50.930;5.344;2023-09-30T14:34:06;20.80;73.70
12901;DHT22;6518;50.930;5.344;2023-09-30T14:36:33;20.80;72.20
12901;DHT22;6518;50.930;5.344;2023-09-30T14:39:00;20.80;72.20
12901;DHT22;6518;50.930;5.344;2023-09-30T14:41:27;20.70;72.30
12901;DHT22;6518;50.930;5.344;2023-09-30T14:43:54;20.70;72.50
12901;DHT22;6518;50.930;5.344;2023-09-30T14:46:21;20.70;72.10
12901;DHT22;6518;50.930;5.344;2023-09-30T14:48:50;20.70;72.40
12901;DHT22;6518;50.930;5.344;2023-09-30T14:51:16;20.70;72.50
12901;DHT22;6518;50.930;5.344;2023-09-30T14:53:47;20.70;71.90
12901;DHT22;6518;50.930;5.344;2023-09-30T14:56:17;20.80;72.40
12901;DHT22;6518;50.930;5.344;2023-09-30T14:58:44;20.80;72.60
12901;DHT22;6518;50.930;5.344;2023-09-30T15:01:12;20.90;72.00
12901;DHT22;6518;50.930;5.344;2023-09-30T15:03:39;20.90;72.10
12901;DHT22;6518;50.930;5.344;2023-09-30T15:06:08;20.90;71.60
12901;DHT22;6518;50.930;5.344;2023-09-30T15:08:35;21.00;71.80
12901;DHT22;6518;50.930;5.344;2023-09-30T15:11:02;20.90;71.50
12901;DHT22;6518;50.930;5.344;2023-09-30T15:13:29;21.00;71.60
12901;DHT22;6518;50.930;5.344;2023-09-30T15:15:56;21.00;71.50
12901;DHT22;6518;50.930;5.344;2023-09-30T15:18:23;20.90;71.40
12901;DHT22;6518;50.930;5.344;2023-09-30T15:20:50;20.90;71.10
12901;DHT22;6518;50.930;5.344;2023-09-30T15:23:18;20.90;71.70
12901;DHT22;6518;50.930;5.344;2023-09-30T15:25:46;20.90;71.10
12901;DHT22;6518;50.930;5.344;2023-09-30T15:28:13;20.90;71.50
12901;DHT22;6518;50.930;5.344;2023-09-30T15:30:40;20.90;71.40
12901;DHT22;6518;50.930;5.344;2023-09-30T15:33:07;20.90;70.90
12901;DHT22;6518;50.930;5.344;2023-09-30T15:35:35;20.90;71.10
12901;DHT22;6518;50.930;5.344;2023-09-30T15:38:02;20.90;71.10
12901;DHT22;6518;50.930;5.344;2023-09-30T15:40:31;20.90;70.80
12901;DHT22;6518;50.930;5.344;2023-09-30T15:42:58;20.90;70.80
12901;DHT22;6518;50.930;5.344;2023-09-30T15:45:26;20.80;70.50
12901;DHT22;6518;50.930;5.344;2023-09-30T15:47:53;20.80;70.50
12901;DHT22;6518;50.930;5.344;2023-09-30T15:50:21;20.70;69.60
12901;DHT22;6518;50.930;5.344;2023-09-30T15:52:48;20.70;70.20
12901;DHT22;6518;50.930;5.344;2023-09-30T15:55:15;20.60;70.30